Time;durP1;ratioP1;P1;durP2;ratioP2;P2;SDS_P1;SDS_P2;PMS_P1;PMS_P2;Temp;Humidity;BMP_temperature;BMP_pressure;BME280_temperature;BME280_humidity;BME280_pressure;Samples;Min_cycle;Max_cycle;Signal;HPM_P1;HPM_P2
2023/09/16 00:00:59;;;;;;;4.07;3.67;;;16.10;1.00;;;;;;5089797;28;20457;-71
2023/09/16 00:03:26;;;;;;;3.73;3.43;;;16.10;1.00;;;;;;5090764;28;20465;-69
2023/09/16 00:05:54;;;;;;;3.27;3.07;;;16.00;1.00;;;;;;5088569;28;20884;-70
2023/09/16 00:08:20;;;;;;;4.00;3.60;;;16.00;1.00;;;;;;5086870;28;20511;-70
2023/09/16 00:10:48;;;;;;;3.73;3.43;;;16.00;1.00;;;;;;5091913;28;20835;-70
2023/09/16 00:13:15;;;;;;;5.13;3.77;;;15.90;1.00;;;;;;5091078;28;20554;-70
2023/09/16 00:15:48;;;;;;;4.47;4.07;;;15.90;1.00;;;;;;5086316;27;20538;-69
2023/09/16 00:18:15;;;;;;;3.83;3.43;;;15.80;1.00;;;;;;5092120;28;20560;-68
2023/09/16 00:20:42;;;;;;;5.27;3.60;;;15.80;1.00;;;;;;5084813;28;20492;-69
2023/09/16 00:23:11;;;;;;;3.83;3.53;;;15.80;1.00;;;;;;5083533;28;20470;-68
2023/09/16 00:25:38;;;;;;;3.60;2.90;;;15.80;1.00;;;;;;5089311;28;20454;-68
2023/09/16 00:28:06;;;;;;;4.20;3.77;;;15.80;1.00;;;;;;5089881;28;20662;-71
2023/09/16 00:30:33;;;;;;;5.07;4.00;;;15.80;1.00;;;;;;5083216;28;20544;-70
2023/09/16 00:33:00;;;;;;;3.87;3.47;;;15.80;1.00;;;;;;5088737;28;20524;-70
2023/09/16 00:35:27;;;;;;;7.27;3.50;;;15.80;1.00;;;;;;5085001;28;20541;-68
2023/09/16 00:37:54;;;;;;;5.10;4.07;;;15.80;1.00;;;;;;5087553;28;20486;-73
2023/09/16 00:40:22;;;;;;;3.73;3.37;;;15.70;1.00;;;;;;5083951;28;20482;-72
2023/09/16 00:42:49;;;;;;;4.90;3.67;;;15.70;1.00;;;;;;5083352;28;20481;-69
2023/09/16 00:45:16;;;;;;;3.70;3.40;;;15.60;1.00;;;;;;5081773;28;20508;-68
2023/09/16 00:47:43;;;;;;;4.33;3.27;;;15.60;1.00;;;;;;5084445;28;20472;-69
2023/09/16 00:50:13;;;;;;;5.73;3.70;;;15.60;1.00;;;;;;5088813;28;21084;-69
2023/09/16 00:52:44;;;;;;;5.00;3.80;;;15.60;1.00;;;;;;5086279;28;20988;-70
2023/09/16 00:55:11;;;;;;;3.80;3.40;;;15.50;1.00;;;;;;5091232;28;20462;-69
2023/09/16 00:57:43;;;;;;;3.47;3.17;;;15.40;1.00;;;;;;5089712;28;22373;-69
2023/09/16 01:00:11;;;;;;;5.87;3.70;;;15.40;1.00;;;;;;5090995;28;21049;-69
2023/09/16 01:02:38;;;;;;;4.23;3.73;;;15.40;1.00;;;;;;5091483;28;20997;-73
2023/09/16 01:05:12;;;;;;;4.37;3.73;;;15.40;1.00;;;;;;5091927;28;20608;-74
2023/09/16 01:07:41;;;;;;;5.00;3.70;;;15.40;1.00;;;;;;5078504;28;20514;-75
2023/09/16 01:10:10;;;;;;;3.70;3.30;;;15.40;1.00;;;;;;5086528;28;20494;-74
2023/09/16 01:12:39;;;;;;;3.53;3.07;;;15.30;1.00;;;;;;5087810;28;20454;-75
2023/09/16 01:15:08;;;;;;;4.10;3.67;;;15.30;1.00;;;;;;5088723;28;20909;-74
2023/09/16 01:17:41;;;;;;;4.50;3.30;;;15.40;1.00;;;;;;5089533;28;20464;-74
2023/09/16 01:20:13;;;;;;;3.97;3.57;;;15.30;1.00;;;;;;5089156;28;21031;-75
2023/09/16 01:22:44;;;;;;;3.80;3.50;;;15.30;1.00;;;;;;5085937;28;20453;-74
2023/09/16 01:25:13;;;;;;;6.40;5.80;;;15.30;1.00;;;;;;5091807;28;20977;-75
2023/09/16 01:27:40;;;;;;;4.40;4.10;;;15.20;1.00;;;;;;5090212;28;20453;-74
2023/09/16 01:30:09;;;;;;;4.83;3.90;;;15.20;1.00;;;;;;5089415;28;20540;-75
2023/09/16 01:32:41;;;;;;;3.97;3.57;;;15.20;1.00;;;;;;5085934;28;21289;-72
2023/09/16 01:35:11;;;;;;;5.43;3.40;;;15.10;1.00;;;;;;5092749;28;20470;-75
2023/09/16 01:37:41;;;;;;;4.20;3.47;;;15.10;1.00;;;;;;5090969;28;20458;-75
2023/09/16 01:40:11;;;;;;;4.03;3.40;;;15.10;1.00;;;;;;5091474;28;20537;-74
2023/09/16 01:42:41;;;;;;;5.23;3.60;;;15.10;1.00;;;;;;5090907;28;20580;-75
2023/09/16 01:45:10;;;;;;;4.80;3.40;;;15.10;1.00;;;;;;5089225;28;20461;-76
2023/09/16 01:47:37;;;;;;;5.33;3.30;;;15.00;1.00;;;;;;5085941;28;20942;-73
2023/09/16 01:50:05;;;;;;;4.50;3.60;;;15.00;1.00;;;;;;5090978;28;20452;-74
2023/09/16 01:52:32;;;;;;;4.43;3.60;;;14.90;1.00;;;;;;5089125;28;20488;-74
2023/09/16 01:54:59;;;;;;;6.10;3.80;;;14.90;1.00;;;;;;5091321;28;20482;-73
2023/09/16 01:57:26;;;;;;;5.13;3.33;;;14.90;1.00;;;;;;5089879;28;21350;-75
2023/09/16 01:59:54;;;;;;;3.97;3.20;;;15.00;1.00;;;;;;5089582;28;20512;-74
2023/09/16 02:02:21;;;;;;;3.90;2.90;;;14.90;1.00;;;;;;5092066;28;20495;-74
2023/09/16 02:04:48;;;;;;;4.40;3.63;;;14.90;1.00;;;;;;5088983;28;21735;-73
2023/09/16 02:07:15;;;;;;;4.17;3.77;;;14.90;1.00;;;;;;5089119;28;21015;-75
2023/09/16 02:09:43;;;;;;;5.83;3.50;;;14.80;1.00;;;;;;5091614;28;20560;-75
2023/09/16 02:12:10;;;;;;;4.77;4.37;;;14.80;1.00;;;;;;5090679;28;20880;-70
2023/09/16 02:14:39;;;;;;;4.40;3.97;;;14.80;1.00;;;;;;5088462;28;20567;-69
2023/09/16 02:17:08;;;;;;;3.70;3.40;;;14.80;1.00;;;;;;5089569;28;20484;-78
2023/09/16 02:19:36;;;;;;;4.20;3.70;;;14.90;1.00;;;;;;5089811;28;20473;-69
2023/09/16 02:22:03;;;;;;;4.50;3.57;;;14.90;1.00;;;;;;5089021;28;21015;-69
2023/09/16 02:24:32;;;;;;;5.60;3.70;;;14.80;1.00;;;;;;5088790;28;20549;-77
2023/09/16 02:26:58;;;;;;;4.80;3.90;;;14.80;1.00;;;;;;5087729;28;20465;-69
2023/09/16 02:29:25;;;;;;;4.57;3.70;;;14.70;1.00;;;;;;5090563;28;20545;-69
2023/09/16 02:31:52;;;;;;;4.60;3.90;;;14.70;1.00;;;;;;5084397;28;20556;-71
2023/09/16 02:34:20;;;;;;;4.50;3.53;;;14.70;1.00;;;;;;5089698;28;20542;-70
2023/09/16 02:36:47;;;;;;;4.53;3.40;;;14.60;1.00;;;;;;5090607;28;20461;-69
2023/09/16 02:39:14;;;;;;;4.30;3.60;;;14.60;1.00;;;;;;5086430;28;20553;-69
2023/09/16 02:41:41;;;;;;;5.63;3.43;;;14.60;1.00;;;;;;5088230;28;20546;-70
2023/09/16 02:44:08;;;;;;;5.50;4.87;;;14.60;1.00;;;;;;5089628;28;20611;-71
2023/09/16 02:46:35;;;;;;;4.47;3.97;;;14.60;1.00;;;;;;5085280;28;20548;-69
2023/09/16 02:49:03;;;;;;;4.60;3.27;;;14.50;1.00;;;;;;5088908;28;20464;-70
2023/09/16 02:51:32;;;;;;;8.03;4.27;;;14.50;1.00;;;;;;5087078;28;20603;-69
2023/09/16 02:54:00;;;;;;;7.10;4.20;;;14.50;1.00;;;;;;5090184;28;20546;-72
2023/09/16 02:56:27;;;;;;;4.87;4.33;;;14.50;1.00;;;;;;5087515;28;21025;-70
2023/09/16 02:58:54;;;;;;;4.07;3.60;;;14.50;1.00;;;;;;5086634;28;20540;-70
2023/09/16 03:01:21;;;;;;;4.73;4.00;;;14.40;1.00;;;;;;5086199;28;21455;-69
2023/09/16 03:03:48;;;;;;;4.50;4.10;;;14.40;1.00;;;;;;5084988;28;20543;-70
2023/09/16 03:06:15;;;;;;;5.90;4.23;;;14.40;1.00;;;;;;5086022;28;20575;-69
2023/09/16 03:08:43;;;;;;;5.47;4.20;;;14.30;1.00;;;;;;5085865;28;20828;-70
2023/09/16 03:11:10;;;;;;;6.30;4.37;;;14.30;1.00;;;;;;5085245;28;20548;-70
2023/09/16 03:13:37;;;;;;;5.10;3.87;;;14.30;1.00;;;;;;5087537;28;20700;-70
2023/09/16 03:16:15;;;;;;;7.67;4.30;;;14.30;1.00;;;;;;5087839;28;20602;-70
2023/09/16 03:18:44;;;;;;;8.97;4.57;;;14.30;1.00;;;;;;5085830;28;20481;-70
2023/09/16 03:21:11;;;;;;;3.60;3.30;;;14.30;1.00;;;;;;5085500;28;20481;-69
2023/09/16 03:23:38;;;;;;;4.23;3.83;;;14.30;1.00;;;;;;5083809;28;20460;-74
2023/09/16 03:26:06;;;;;;;6.50;4.00;;;14.20;1.00;;;;;;5088655;28;20532;-74
2023/09/16 03:28:33;;;;;;;5.30;3.97;;;14.20;1.00;;;;;;5083379;28;20456;-75
2023/09/16 03:31:00;;;;;;;7.80;4.20;;;14.20;1.00;;;;;;5087865;28;20502;-75
2023/09/16 03:33:27;;;;;;;4.77;4.37;;;14.20;1.00;;;;;;5087959;28;20845;-75
2023/09/16 03:35:54;;;;;;;4.87;3.93;;;14.20;1.00;;;;;;5086246;28;20476;-75
2023/09/16 03:38:21;;;;;;;6.77;5.47;;;14.10;1.00;;;;;;5083727;28;20457;-74
2023/09/16 03:40:50;;;;;;;4.63;4.00;;;14.10;1.00;;;;;;5085309;28;20959;-74
2023/09/16 03:43:18;;;;;;;4.60;4.20;;;14.20;1.00;;;;;;5084301;28;20504;-74
2023/09/16 03:45:45;;;;;;;4.40;3.87;;;14.20;1.00;;;;;;5083016;28;20476;-74
2023/09/16 03:48:12;;;;;;;4.50;3.90;;;14.10;1.00;;;;;;5083024;28;20537;-74
2023/09/16 03:50:39;;;;;;;6.23;4.50;;;14.10;1.00;;;;;;5084041;28;21334;-74
2023/09/16 03:53:06;;;;;;;4.50;3.53;;;14.00;1.00;;;;;;5085169;28;20473;-75
2023/09/16 03:55:34;;;;;;;4.00;3.70;;;14.00;1.00;;;;;;5087789;28;20997;-73
2023/09/16 03:58:01;;;;;;;4.90;3.87;;;14.00;1.00;;;;;;5085819;28;20489;-73
2023/09/16 04:00:30;;;;;;;5.17;4.30;;;13.90;1.00;;;;;;5087291;28;20523;-74
2023/09/16 04:02:57;;;;;;;4.50;3.90;;;13.90;1.00;;;;;;5083027;28;20534;-74
2023/09/16 04:05:24;;;;;;;4.20;3.60;;;13.90;1.00;;;;;;5079999;28;20480;-74
2023/09/16 04:07:51;;;;;;;5.70;4.37;;;13.90;1.00;;;;;;5089055;28;20491;-74
2023/09/16 04:10:18;;;;;;;5.30;4.37;;;13.90;1.00;;;;;;5087201;28;20557;-73
2023/09/16 04:12:44;;;;;;;4.23;3.80;;;13.80;1.00;;;;;;5086346;28;20530;-74
2023/09/16 04:15:11;;;;;;;6.20;3.57;;;13.80;1.00;;;;;;5087978;28;20472;-74
2023/09/16 04:17:40;;;;;;;4.60;4.10;;;13.80;1.00;;;;;;5085938;28;20553;-74
2023/09/16 04:20:09;;;;;;;8.10;3.97;;;13.80;1.00;;;;;;5085934;28;20491;-73
2023/09/16 04:22:36;;;;;;;5.37;4.30;;;13.80;1.00;;;;;;5087101;28;20461;-76
2023/09/16 04:25:04;;;;;;;6.03;4.30;;;13.80;1.00;;;;;;5084176;28;22421;-73
2023/09/16 04:27:31;;;;;;;6.20;3.93;;;13.80;1.00;;;;;;5086906;28;20497;-73
2023/09/16 04:29:57;;;;;;;6.23;4.33;;;13.80;1.00;;;;;;5084064;28;20993;-73
2023/09/16 04:32:24;;;;;;;6.27;4.10;;;13.70;1.00;;;;;;5082501;28;20556;-73
2023/09/16 04:34:54;;;;;;;4.30;3.80;;;13.70;1.00;;;;;;5089970;28;20551;-74
2023/09/16 04:37:21;;;;;;;7.40;3.70;;;13.70;1.00;;;;;;5086980;28;20901;-73
2023/09/16 04:39:48;;;;;;;7.93;4.47;;;13.70;1.00;;;;;;5086708;28;20513;-75
2023/09/16 04:42:15;;;;;;;6.00;4.47;;;13.70;1.00;;;;;;5087665;28;20543;-74
2023/09/16 04:44:44;;;;;;;5.50;4.27;;;13.70;1.00;;;;;;5087292;28;20477;-73
2023/09/16 04:47:11;;;;;;;4.17;3.80;;;13.70;1.00;;;;;;5085840;28;20457;-73
2023/09/16 04:49:38;;;;;;;5.73;4.60;;;13.70;1.00;;;;;;5084875;28;20979;-74
2023/09/16 04:52:06;;;;;;;6.43;5.00;;;13.70;1.00;;;;;;5088153;28;20495;-73
2023/09/16 04:54:35;;;;;;;5.90;4.27;;;13.70;1.00;;;;;;5090270;28;20465;-74
2023/09/16 04:57:03;;;;;;;6.03;4.73;;;13.60;1.00;;;;;;5090775;28;20596;-74
2023/09/16 04:59:32;;;;;;;4.80;4.30;;;13.60;1.00;;;;;;5088875;28;20571;-74
2023/09/16 05:01:59;;;;;;;7.07;5.53;;;13.60;1.00;;;;;;5092308;28;20459;-73
2023/09/16 05:04:26;;;;;;;6.07;4.90;;;13.60;1.00;;;;;;5088067;28;21086;-73
2023/09/16 05:06:53;;;;;;;9.03;5.90;;;13.60;1.00;;;;;;5089380;28;20497;-73
2023/09/16 05:09:23;;;;;;;14.73;5.57;;;13.70;1.00;;;;;;5084766;28;20560;-74
2023/09/16 05:11:50;;;;;;;5.47;4.57;;;13.60;1.00;;;;;;5088568;28;20458;-74
2023/09/16 05:14:17;;;;;;;5.90;5.27;;;13.70;1.00;;;;;;5088051;28;21011;-74
2023/09/16 05:16:44;;;;;;;8.23;4.60;;;13.70;1.00;;;;;;5089304;28;20562;-75
2023/09/16 05:19:11;;;;;;;5.47;4.97;;;13.70;1.00;;;;;;5092426;28;20464;-75
2023/09/16 05:21:38;;;;;;;5.50;4.50;;;13.70;1.00;;;;;;5091246;28;20594;-75
2023/09/16 05:24:06;;;;;;;5.50;5.00;;;13.70;1.00;;;;;;5089806;28;20475;-74
2023/09/16 05:26:34;;;;;;;6.20;5.23;;;13.80;1.00;;;;;;5090683;28;20547;-74
2023/09/16 05:29:01;;;;;;;7.70;5.10;;;13.80;1.00;;;;;;5088839;28;20452;-70
2023/09/16 05:31:28;;;;;;;6.33;4.80;;;13.80;1.00;;;;;;5091003;28;20559;-74
2023/09/16 05:33:55;;;;;;;9.27;4.60;;;13.80;1.00;;;;;;5092135;28;20480;-72
2023/09/16 05:36:23;;;;;;;4.40;3.80;;;13.90;1.00;;;;;;5089495;28;21654;-72
2023/09/16 05:38:50;;;;;;;5.90;4.50;;;13.90;1.00;;;;;;5090416;28;20513;-72
2023/09/16 05:41:17;;;;;;;6.00;4.63;;;14.10;1.00;;;;;;5089701;28;20514;-72
2023/09/16 05:43:45;;;;;;;5.10;4.60;;;14.10;1.00;;;;;;5088846;28;20551;-69
2023/09/16 05:46:13;;;;;;;5.40;4.90;;;14.20;1.00;;;;;;5090391;28;20457;-70
2023/09/16 05:48:41;;;;;;;9.10;4.83;;;14.30;1.00;;;;;;5088757;28;20453;-68
2023/09/16 05:51:09;;;;;;;5.27;4.73;;;14.30;1.00;;;;;;5090139;28;20560;-68
2023/09/16 05:53:36;;;;;;;5.07;4.23;;;14.30;1.00;;;;;;5087604;28;20859;-68
2023/09/16 05:56:04;;;;;;;5.80;4.67;;;14.30;1.00;;;;;;5084794;28;20870;-69
2023/09/16 05:58:32;;;;;;;5.90;5.20;;;14.30;1.00;;;;;;5089588;28;20457;-68
2023/09/16 06:01:00;;;;;;;4.93;4.43;;;14.30;1.00;;;;;;5081980;28;21152;-69
2023/09/16 06:03:27;;;;;;;6.17;4.97;;;14.40;1.00;;;;;;5068690;28;20468;-68
2023/09/16 06:05:59;;;;;;;7.37;4.80;;;14.40;1.00;;;;;;5089246;28;20461;-70
2023/09/16 06:08:26;;;;;;;10.40;6.10;;;14.40;1.00;;;;;;5087348;28;20494;-75
2023/09/16 06:10:53;;;;;;;7.03;5.30;;;14.50;1.00;;;;;;5089029;28;20473;-68
2023/09/16 06:13:20;;;;;;;5.30;4.63;;;14.50;1.00;;;;;;5085954;28;20985;-69
2023/09/16 06:15:47;;;;;;;5.63;5.03;;;14.50;1.00;;;;;;5087949;28;20493;-68
2023/09/16 06:18:16;;;;;;;6.13;5.03;;;14.40;1.00;;;;;;5090171;28;20979;-68
2023/09/16 06:20:43;;;;;;;5.60;4.07;;;14.40;1.00;;;;;;5087658;28;20502;-70
2023/09/16 06:23:10;;;;;;;6.73;5.00;;;14.40;1.00;;;;;;5090614;28;20485;-69
2023/09/16 06:25:38;;;;;;;7.20;4.90;;;14.40;1.00;;;;;;5087579;28;20468;-69
2023/09/16 06:28:05;;;;;;;6.03;4.67;;;14.40;1.00;;;;;;5091937;28;20465;-69
2023/09/16 06:30:32;;;;;;;5.80;4.90;;;14.50;1.00;;;;;;5089639;28;20481;-73
2023/09/16 06:33:00;;;;;;;6.90;4.80;;;14.70;1.00;;;;;;5086678;28;20552;-69
2023/09/16 06:35:28;;;;;;;5.03;4.53;;;14.70;1.00;;;;;;5081708;28;20520;-71
2023/09/16 06:37:55;;;;;;;6.60;5.20;;;14.70;1.00;;;;;;5088010;28;20461;-72
2023/09/16 06:40:22;;;;;;;5.10;4.60;;;14.80;1.00;;;;;;5086713;28;20562;-68
2023/09/16 06:42:49;;;;;;;7.10;4.93;;;14.80;1.00;;;;;;5086736;28;20527;-68
2023/09/16 06:45:16;;;;;;;7.77;4.50;;;14.90;1.00;;;;;;5088562;28;20465;-68
2023/09/16 06:47:44;;;;;;;6.30;5.40;;;15.00;1.00;;;;;;5088085;28;20481;-70
2023/09/16 06:50:12;;;;;;;6.80;5.27;;;15.00;1.00;;;;;;5089193;28;20859;-73
2023/09/16 06:52:40;;;;;;;6.17;4.97;;;15.00;1.00;;;;;;5088312;28;20540;-73
2023/09/16 06:55:07;;;;;;;7.90;5.77;;;15.10;1.00;;;;;;5086527;28;20538;-73
2023/09/16 06:57:34;;;;;;;5.90;4.83;;;15.20;1.00;;;;;;5088209;28;21527;-74
2023/09/16 07:00:01;;;;;;;7.53;5.37;;;15.30;1.00;;;;;;5090258;28;20541;-75
2023/09/16 07:02:28;;;;;;;7.17;5.10;;;15.40;1.00;;;;;;5087131;28;20591;-74
2023/09/16 07:04:56;;;;;;;5.37;4.57;;;15.50;1.00;;;;;;5089175;28;21162;-74
2023/09/16 07:07:24;;;;;;;8.80;5.20;;;15.50;1.00;;;;;;5087154;28;20485;-73
2023/09/16 07:09:55;;;;;;;5.70;4.60;;;15.60;1.00;;;;;;5089922;28;20556;-77
2023/09/16 07:12:22;;;;;;;6.40;4.93;;;15.80;1.00;;;;;;5086936;28;20478;-73
2023/09/16 07:14:49;;;;;;;8.03;5.63;;;16.00;1.00;;;;;;5087020;28;20612;-72
2023/09/16 07:17:16;;;;;;;6.37;5.00;;;16.10;1.00;;;;;;5089277;28;20648;-73
2023/09/16 07:19:44;;;;;;;7.63;4.60;;;16.20;1.00;;;;;;5086940;28;21284;-72
2023/09/16 07:22:11;;;;;;;7.37;4.80;;;16.40;1.00;;;;;;5088693;28;20471;-76
2023/09/16 07:24:38;;;;;;;5.83;4.90;;;16.50;1.00;;;;;;5084935;28;20544;-74
2023/09/16 07:27:06;;;;;;;5.27;4.77;;;16.60;1.00;;;;;;5090212;28;20963;-76
2023/09/16 07:29:33;;;;;;;6.77;4.67;;;16.60;1.00;;;;;;5086002;28;20463;-74
2023/09/16 07:32:01;;;;;;;7.77;5.20;;;16.70;1.00;;;;;;5088488;28;20532;-74
2023/09/16 07:34:28;;;;;;;7.23;5.40;;;16.90;1.00;;;;;;5087752;28;20458;-75
2023/09/16 07:36:58;;;;;;;5.60;5.00;;;16.80;1.00;;;;;;5087405;28;20973;-75
2023/09/16 07:39:25;;;;;;;6.90;5.67;;;16.80;1.00;;;;;;5088554;28;20923;-75
2023/09/16 07:41:52;;;;;;;8.90;5.23;;;16.80;1.00;;;;;;5088409;28;20857;-75
2023/09/16 07:44:20;;;;;;;5.53;4.63;;;16.90;1.00;;;;;;5091146;28;20508;-74
2023/09/16 07:46:48;;;;;;;5.03;4.60;;;17.10;1.00;;;;;;5088067;28;20951;-74
2023/09/16 07:49:15;;;;;;;6.20;5.30;;;17.20;1.00;;;;;;5085412;28;20573;-74
2023/09/16 07:51:45;;;;;;;5.53;5.03;;;17.40;1.00;;;;;;5085109;28;20584;-75
2023/09/16 07:54:12;;;;;;;7.00;5.07;;;17.50;1.00;;;;;;5084113;28;20466;-75
2023/09/16 07:56:39;;;;;;;6.53;4.53;;;17.80;1.00;;;;;;5090699;28;20482;-74
2023/09/16 07:59:06;;;;;;;5.03;4.60;;;17.90;1.00;;;;;;5087061;28;20505;-74
2023/09/16 08:01:35;;;;;;;6.00;5.50;;;18.00;1.00;;;;;;5085086;28;20467;-75
2023/09/16 08:04:01;;;;;;;5.73;4.20;;;18.20;1.00;;;;;;5087434;28;20451;-75
2023/09/16 08:06:28;;;;;;;5.50;5.00;;;18.30;1.00;;;;;;5088176;28;20563;-74
2023/09/16 08:08:55;;;;;;;6.13;4.47;;;18.50;1.00;;;;;;5086502;28;20503;-73
2023/09/16 08:11:22;;;;;;;5.57;4.77;;;18.70;1.00;;;;;;5087041;28;20571;-73
2023/09/16 08:13:51;;;;;;;8.70;5.57;;;18.80;1.00;;;;;;5086916;28;20528;-75
2023/09/16 08:16:18;;;;;;;6.63;4.80;;;18.90;1.00;;;;;;5088918;28;20492;-74
2023/09/16 08:18:46;;;;;;;4.60;4.20;;;19.10;1.00;;;;;;5087816;28;20558;-73
2023/09/16 08:21:13;;;;;;;4.40;4.00;;;19.20;1.00;;;;;;5087114;28;20617;-74
2023/09/16 08:23:41;;;;;;;6.30;5.27;;;19.40;1.00;;;;;;5086156;28;20560;-73
2023/09/16 08:26:08;;;;;;;4.70;4.17;;;19.50;1.00;;;;;;5084415;28;20461;-74
2023/09/16 08:28:36;;;;;;;5.07;4.40;;;19.70;1.00;;;;;;5088941;28;20919;-76
2023/09/16 08:31:05;;;;;;;5.50;4.33;;;19.80;1.00;;;;;;5085933;28;20476;-75
2023/09/16 08:33:32;;;;;;;5.63;4.50;;;19.80;1.00;;;;;;5089320;28;21363;-75
2023/09/16 08:36:01;;;;;;;7.17;5.10;;;20.00;1.00;;;;;;5089068;28;20456;-74
2023/09/16 08:38:28;;;;;;;28.07;25.37;;;20.10;1.00;;;;;;5090509;28;20481;-74
2023/09/16 08:41:02;;;;;;;11.00;5.53;;;20.30;1.00;;;;;;5088380;28;21211;-75
2023/09/16 08:43:34;;;;;;;5.40;4.43;;;20.50;1.00;;;;;;5084919;28;20470;-73
2023/09/16 08:46:04;;;;;;;5.50;4.20;;;20.60;1.00;;;;;;5087753;28;20423;-74
2023/09/16 08:48:34;;;;;;;5.23;4.20;;;20.80;1.00;;;;;;5085504;28;20454;-74
2023/09/16 08:51:05;;;;;;;7.70;4.30;;;20.90;1.00;;;;;;5084898;28;20438;-75
2023/09/16 08:53:35;;;;;;;5.53;4.27;;;21.00;1.00;;;;;;5086160;28;20559;-74
2023/09/16 08:56:03;;;;;;;8.40;4.03;;;21.30;1.00;;;;;;5084436;28;20472;-75
2023/09/16 08:58:35;;;;;;;5.93;5.33;;;21.40;1.00;;;;;;5063587;28;21021;-74
2023/09/16 09:01:02;;;;;;;5.57;4.60;;;21.70;1.00;;;;;;5080481;28;20476;-75
2023/09/16 09:03:30;;;;;;;4.73;4.20;;;21.80;1.00;;;;;;5084764;28;20544;-75
2023/09/16 09:05:58;;;;;;;6.73;4.43;;;21.90;1.00;;;;;;5086962;28;20479;-73
2023/09/16 09:08:26;;;;;;;5.30;4.90;;;22.10;1.00;;;;;;5075862;28;20475;-75
2023/09/16 09:10:53;;;;;;;5.50;3.97;;;22.40;1.00;;;;;;5085588;28;20517;-75
2023/09/16 09:13:20;;;;;;;4.47;4.07;;;22.90;1.00;;;;;;5065510;28;20467;-73
2023/09/16 09:15:49;;;;;;;5.63;4.30;;;24.20;1.00;;;;;;5086620;28;20545;-75
2023/09/16 09:18:18;;;;;;;5.90;4.93;;;25.80;1.00;;;;;;5083671;28;20495;-74
2023/09/16 09:20:46;;;;;;;4.63;4.13;;;27.00;1.00;;;;;;5086334;28;20468;-74
2023/09/16 09:23:14;;;;;;;5.10;4.40;;;28.10;1.00;;;;;;5069578;28;20535;-76
2023/09/16 09:25:42;;;;;;;5.60;4.70;;;29.30;1.00;;;;;;5083828;28;20487;-74
2023/09/16 09:28:09;;;;;;;4.30;4.00;;;30.10;1.00;;;;;;5083374;28;20466;-75
2023/09/16 09:30:37;;;;;;;4.93;4.47;;;30.00;1.00;;;;;;5085409;28;20552;-74
2023/09/16 09:33:04;;;;;;;4.60;4.20;;;29.80;1.00;;;;;;5088906;28;20445;-74
2023/09/16 09:35:32;;;;;;;3.90;3.57;;;30.00;1.00;;;;;;5086387;28;20449;-73
2023/09/16 09:37:59;;;;;;;5.03;3.57;;;30.20;1.00;;;;;;5088489;28;20547;-74
2023/09/16 09:40:28;;;;;;;4.93;4.00;;;31.00;1.00;;;;;;5088307;28;20667;-74
2023/09/16 09:42:57;;;;;;;4.40;4.00;;;31.60;1.00;;;;;;5087858;28;20575;-74
2023/09/16 09:45:25;;;;;;;4.63;4.20;;;31.50;1.00;;;;;;5088270;28;20474;-74
2023/09/16 09:47:53;;;;;;;4.40;4.00;;;31.20;1.00;;;;;;5087136;28;20974;-73
2023/09/16 09:50:21;;;;;;;5.27;4.87;;;30.30;1.00;;;;;;5089708;28;20603;-73
2023/09/16 09:52:49;;;;;;;4.40;4.00;;;29.80;1.00;;;;;;5089491;28;20469;-73
2023/09/16 09:55:17;;;;;;;4.77;4.37;;;29.20;1.00;;;;;;5090035;28;20890;-75
2023/09/16 09:57:46;;;;;;;4.43;4.03;;;29.80;1.00;;;;;;5090983;28;20601;-73
2023/09/16 10:00:17;;;;;;;3.60;3.30;;;31.10;1.00;;;;;;5089957;28;20981;-74
2023/09/16 10:02:44;;;;;;;11.30;5.03;;;32.10;1.00;;;;;;5085868;28;20462;-73
2023/09/16 10:05:15;;;;;;;4.53;4.13;;;32.30;1.00;;;;;;5086884;28;20471;-73
2023/09/16 10:07:43;;;;;;;4.27;3.87;;;33.20;1.00;;;;;;5085493;28;20481;-73
2023/09/16 10:10:15;;;;;;;5.00;4.60;;;32.80;1.00;;;;;;5090102;28;22150;-74
2023/09/16 10:12:44;;;;;;;4.50;4.07;;;32.10;1.00;;;;;;5089104;28;20439;-74
2023/09/16 10:15:11;;;;;;;4.30;4.00;;;31.40;1.00;;;;;;5087706;28;20942;-74
2023/09/16 10:17:40;;;;;;;4.70;4.27;;;31.20;1.00;;;;;;5089183;28;20488;-74
2023/09/16 10:20:10;;;;;;;5.30;4.80;;;30.60;1.00;;;;;;5082358;28;21005;-75
2023/09/16 10:22:38;;;;;;;3.80;3.47;;;31.30;1.00;;;;;;5089826;28;20510;-70
2023/09/16 10:25:06;;;;;;;3.80;3.50;;;32.70;1.00;;;;;;5085072;27;21111;-71
2023/09/16 10:27:38;;;;;;;4.93;4.17;;;34.10;1.00;;;;;;5081740;28;20946;-72
2023/09/16 10:30:07;;;;;;;5.80;4.40;;;34.10;1.00;;;;;;5083062;28;20550;-69
2023/09/16 10:32:35;;;;;;;4.43;4.03;;;34.50;1.00;;;;;;5084916;28;20626;-70
2023/09/16 10:35:04;;;;;;;4.27;3.87;;;35.10;1.00;;;;;;5087631;28;20583;-69
2023/09/16 10:37:32;;;;;;;3.50;3.20;;;35.30;1.00;;;;;;5088950;28;20495;-70
2023/09/16 10:40:00;;;;;;;4.37;4.00;;;36.20;1.00;;;;;;5085081;28;20462;-70
2023/09/16 10:42:27;;;;;;;4.37;4.07;;;36.80;1.00;;;;;;5085876;28;20929;-70
2023/09/16 10:44:57;;;;;;;4.47;4.10;;;36.50;1.00;;;;;;5086321;28;20500;-69
2023/09/16 10:47:25;;;;;;;5.40;4.23;;;36.40;1.00;;;;;;5087617;28;20542;-70
2023/09/16 10:49:52;;;;;;;4.33;4.00;;;36.50;1.00;;;;;;5082443;28;20467;-70
2023/09/16 10:52:25;;;;;;;4.40;4.00;;;36.80;1.00;;;;;;5077590;28;20773;-71
2023/09/16 10:55:01;;;;;;;5.03;4.63;;;36.90;1.00;;;;;;5084577;28;20546;-71
2023/09/16 10:57:35;;;;;;;4.10;3.70;;;37.20;1.00;;;;;;5080705;28;21324;-73
2023/09/16 11:00:04;;;;;;;4.60;4.20;;;36.30;1.00;;;;;;5084109;28;20536;-70
2023/09/16 11:02:43;;;;;;;4.33;4.00;;;36.30;1.00;;;;;;5090463;28;20455;-70
2023/09/16 11:05:10;;;;;;;4.40;4.00;;;35.90;1.00;;;;;;5086283;28;20446;-72
2023/09/16 11:07:40;;;;;;;6.50;5.03;;;36.10;1.00;;;;;;5084564;28;20992;-70
2023/09/16 11:10:08;;;;;;;4.90;4.50;;;36.70;1.00;;;;;;5085451;28;20498;-70
2023/09/16 11:12:36;;;;;;;4.80;4.40;;;37.10;1.00;;;;;;5083824;28;20463;-70
2023/09/16 11:15:08;;;;;;;7.43;6.80;;;37.40;1.00;;;;;;5086543;28;20537;-71
2023/09/16 11:17:35;;;;;;;4.80;4.40;;;37.70;1.00;;;;;;5086436;28;20475;-71
2023/09/16 11:20:11;;;;;;;6.10;5.50;;;36.60;1.00;;;;;;5084806;28;20447;-71
2023/09/16 11:22:47;;;;;;;5.90;4.93;;;36.50;1.00;;;;;;5085557;28;20477;-72
2023/09/16 11:25:15;;;;;;;4.80;4.40;;;36.80;1.00;;;;;;5083391;28;20508;-70
2023/09/16 11:27:43;;;;;;;5.30;4.90;;;36.40;1.00;;;;;;5086945;28;20561;-72
2023/09/16 11:30:15;;;;;;;5.10;4.60;;;36.80;1.00;;;;;;5085057;28;20477;-69
2023/09/16 11:32:42;;;;;;;4.50;4.20;;;36.80;1.00;;;;;;5081588;28;20550;-69
2023/09/16 11:35:10;;;;;;;8.63;7.93;;;37.20;1.00;;;;;;5085884;28;20466;-72
2023/09/16 11:37:37;;;;;;;4.67;4.27;;;38.50;1.00;;;;;;5087363;28;20428;-71
2023/09/16 11:40:10;;;;;;;4.73;4.43;;;38.80;1.00;;;;;;5085605;28;20580;-70
2023/09/16 11:42:38;;;;;;;4.70;4.30;;;38.90;1.00;;;;;;5085998;28;20498;-71
2023/09/16 11:45:06;;;;;;;4.77;4.37;;;39.00;1.00;;;;;;5084165;28;20846;-71
2023/09/16 11:47:34;;;;;;;5.53;5.03;;;38.80;1.00;;;;;;5088794;28;20951;-71
2023/09/16 11:50:01;;;;;;;6.40;4.80;;;38.40;1.00;;;;;;5086217;28;20462;-71
2023/09/16 11:52:28;;;;;;;4.33;4.03;;;38.20;1.00;;;;;;5081699;28;20447;-70
2023/09/16 11:54:56;;;;;;;4.33;3.93;;;37.80;1.00;;;;;;5085434;28;20609;-70
2023/09/16 11:57:25;;;;;;;5.17;4.50;;;38.30;1.00;;;;;;5086749;28;20423;-71
2023/09/16 11:59:52;;;;;;;4.90;4.50;;;38.30;1.00;;;;;;5084397;28;20501;-71
2023/09/16 12:02:19;;;;;;;4.30;4.00;;;38.90;1.00;;;;;;5081925;28;20459;-71
2023/09/16 12:04:46;;;;;;;4.13;3.90;;;39.40;1.00;;;;;;5083589;28;20516;-71
2023/09/16 12:07:14;;;;;;;4.90;4.50;;;39.30;1.00;;;;;;5084290;28;20536;-70
2023/09/16 12:09:41;;;;;;;8.47;6.70;;;39.30;1.00;;;;;;5086406;28;20849;-70
2023/09/16 12:12:09;;;;;;;4.53;4.17;;;39.70;1.00;;;;;;5085328;28;20446;-70
2023/09/16 12:14:39;;;;;;;5.53;4.23;;;39.40;1.00;;;;;;5086696;28;20919;-71
2023/09/16 12:17:06;;;;;;;4.80;4.50;;;38.50;1.00;;;;;;5080929;28;20446;-71
2023/09/16 12:19:34;;;;;;;4.20;3.90;;;39.30;1.00;;;;;;5083377;28;20587;-70
2023/09/16 12:22:01;;;;;;;5.20;4.70;;;39.80;1.00;;;;;;5083484;28;20442;-69
2023/09/16 12:24:28;;;;;;;5.10;4.80;;;38.50;1.00;;;;;;5088134;28;20509;-69
2023/09/16 12:26:55;;;;;;;4.90;4.57;;;37.50;1.00;;;;;;5086358;28;20561;-70
2023/09/16 12:29:22;;;;;;;4.40;4.00;;;38.00;1.00;;;;;;5085111;28;20474;-71
2023/09/16 12:31:51;;;;;;;4.30;4.00;;;38.90;1.00;;;;;;5084303;28;21032;-71
2023/09/16 12:34:19;;;;;;;4.60;4.30;;;38.90;1.00;;;;;;5085465;28;20523;-70
2023/09/16 12:36:50;;;;;;;4.53;4.13;;;38.70;1.00;;;;;;5085246;28;20585;-69
2023/09/16 12:39:17;;;;;;;5.60;5.20;;;38.20;1.00;;;;;;5084207;28;20557;-71
2023/09/16 12:41:46;;;;;;;4.87;4.57;;;38.50;1.00;;;;;;5084555;28;20458;-70
2023/09/16 12:44:14;;;;;;;4.87;4.47;;;39.00;1.00;;;;;;5083253;28;20902;-72
2023/09/16 12:46:41;;;;;;;6.37;5.80;;;38.30;1.00;;;;;;5082615;28;20959;-72
2023/09/16 12:49:10;;;;;;;4.60;4.30;;;38.40;1.00;;;;;;5083022;28;20465;-69
2023/09/16 12:51:38;;;;;;;4.80;4.40;;;37.70;1.00;;;;;;5087538;28;20986;-73
2023/09/16 12:54:07;;;;;;;4.60;3.90;;;37.60;1.00;;;;;;5080571;28;20450;-72
2023/09/16 12:56:36;;;;;;;6.50;3.90;;;38.10;1.00;;;;;;5085251;28;20524;-70
2023/09/16 12:59:05;;;;;;;4.90;4.50;;;39.00;1.00;;;;;;5086277;28;20506;-69
2023/09/16 13:01:32;;;;;;;5.03;4.30;;;38.40;1.00;;;;;;5084695;28;20510;-71